Time;durP1;ratioP1;P1;durP2;ratioP2;P2;SDS_P1;SDS_P2;PMS_P1;PMS_P2;Temp;Humidity;BMP_temperature;BMP_pressure;BME280_temperature;BME280_humidity;BME280_pressure;Samples;Min_cycle;Max_cycle;Signal;HPM_P1;HPM_P2
2023/04/02 00:02:15;;;;;;;;;;;17.70;99.50;;;;;;10495503;28;19959;-24
2023/04/02 00:07:32;;;;;;;;;;;17.60;99.80;;;;;;10493341;28;19951;-24
2023/04/02 00:12:35;;;;;;;;;;;17.60;97.90;;;;;;10488194;28;20035;-24
2023/04/02 00:17:37;;;;;;;;;;;17.70;99.60;;;;;;10500875;28;19924;-24
2023/04/02 00:22:43;;;;;;;;;;;17.30;99.90;;;;;;10490578;28;20361;-23
2023/04/02 00:27:46;;;;;;;;;;;17.10;95.40;;;;;;10482171;28;19946;-24
2023/04/02 00:32:48;;;;;;;;;;;17.50;99.90;;;;;;10494432;28;19991;-25
2023/04/02 00:37:50;;;;;;;;;;;17.40;99.90;;;;;;10487569;28;20108;-26
2023/04/02 00:42:54;;;;;;;;;;;17.60;99.40;;;;;;10489717;28;19935;-24
2023/04/02 00:47:57;;;;;;;;;;;17.50;98.40;;;;;;10491159;28;20011;-24
2023/04/02 00:53:03;;;;;;;;;;;17.80;98.80;;;;;;10488249;28;19924;-24
2023/04/02 00:58:15;;;;;;;;;;;17.50;99.70;;;;;;10489227;28;19926;-23
2023/04/02 01:03:28;;;;;;;;;;;17.50;99.90;;;;;;10484850;28;19924;-23
2023/04/02 01:08:37;;;;;;;;;;;17.60;99.60;;;;;;10484486;28;19920;-23
2023/04/02 01:13:41;;;;;;;;;;;17.60;99.60;;;;;;10486301;28;20015;-25
2023/04/02 01:18:49;;;;;;;;;;;17.70;99.10;;;;;;10488513;28;19925;-26
2023/04/02 01:23:59;;;;;;;;;;;17.30;99.60;;;;;;10491618;28;19927;-25
2023/04/02 01:29:05;;;;;;;;;;;17.50;99.80;;;;;;10481568;28;20398;-25
2023/04/02 01:34:08;;;;;;;;;;;17.20;99.90;;;;;;10491875;28;19927;-25
2023/04/02 01:39:15;;;;;;;;;;;17.40;99.90;;;;;;10496978;28;20418;-24
2023/04/02 01:44:22;;;;;;;;;;;17.70;99.20;;;;;;10501826;28;19974;-25
2023/04/02 01:49:24;;;;;;;;;;;17.60;99.10;;;;;;10490014;28;19978;-26
2023/04/02 01:54:27;;;;;;;;;;;17.10;99.90;;;;;;10490419;28;19951;-25
2023/04/02 01:59:32;;;;;;;;;;;17.10;99.90;;;;;;10493879;28;19963;-25
2023/04/02 02:04:33;;;;;;;;;;;17.60;99.30;;;;;;10499364;28;20418;-25
2023/04/02 02:09:36;;;;;;;;;;;17.60;99.30;;;;;;10487007;28;20415;-25
2023/04/02 02:14:39;;;;;;;;;;;17.40;99.40;;;;;;10485807;28;20018;-25
2023/04/02 02:19:42;;;;;;;;;;;17.30;99.60;;;;;;10500411;28;19920;-25
2023/04/02 02:24:44;;;;;;;;;;;17.40;99.90;;;;;;10489084;28;19928;-25
2023/04/02 02:29:49;;;;;;;;;;;17.50;99.50;;;;;;10490387;28;19967;-24
2023/04/02 02:34:54;;;;;;;;;;;17.30;99.90;;;;;;10495717;28;19956;-25
2023/04/02 02:39:58;;;;;;;;;;;17.50;99.90;;;;;;10500918;28;19956;-25
2023/04/02 02:45:01;;;;;;;;;;;17.50;99.30;;;;;;10495039;28;20467;-23
2023/04/02 02:50:05;;;;;;;;;;;17.60;99.30;;;;;;10491752;28;20022;-25
2023/04/02 02:55:09;;;;;;;;;;;17.70;99.00;;;;;;10498533;28;20035;-25
2023/04/02 03:00:15;;;;;;;;;;;17.40;99.90;;;;;;10494798;28;20381;-24
2023/04/02 03:05:18;;;;;;;;;;;17.40;99.90;;;;;;10495409;28;19920;-26
2023/04/02 03:10:22;;;;;;;;;;;17.30;99.50;;;;;;10495959;28;19966;-23
2023/04/02 03:15:29;;;;;;;;;;;17.40;99.70;;;;;;10491481;28;19924;-25
2023/04/02 03:20:35;;;;;;;;;;;17.40;99.60;;;;;;10496374;28;19966;-25
2023/04/02 03:25:39;;;;;;;;;;;17.30;99.90;;;;;;10496076;28;19924;-25
2023/04/02 03:30:44;;;;;;;;;;;17.40;99.80;;;;;;10495850;28;19921;-24
2023/04/02 03:35:49;;;;;;;;;;;17.60;99.10;;;;;;10495259;28;19986;-25
2023/04/02 03:40:57;;;;;;;;;;;17.50;99.20;;;;;;10486980;28;20283;-25
2023/04/02 03:46:06;;;;;;;;;;;17.60;98.90;;;;;;10495919;28;20444;-28
2023/04/02 03:51:12;;;;;;;;;;;17.60;98.20;;;;;;10492688;28;20001;-24
2023/04/02 03:56:18;;;;;;;;;;;17.30;99.40;;;;;;10493925;28;20372;-25
2023/04/02 04:01:25;;;;;;;;;;;17.40;99.10;;;;;;10494991;28;19967;-24
2023/04/02 04:06:28;;;;;;;;;;;17.50;99.20;;;;;;10501496;28;19920;-23
2023/04/02 04:11:32;;;;;;;;;;;17.40;99.40;;;;;;10488706;28;20015;-24
2023/04/02 04:16:43;;;;;;;;;;;17.40;99.70;;;;;;10483915;28;19932;-25
2023/04/02 04:21:45;;;;;;;;;;;17.40;98.80;;;;;;10496520;28;19946;-24
2023/04/02 04:26:52;;;;;;;;;;;17.30;98.70;;;;;;10493027;28;19924;-28
2023/04/02 04:31:55;;;;;;;;;;;17.30;99.50;;;;;;10485073;28;19928;-25
2023/04/02 04:37:00;;;;;;;;;;;17.10;99.90;;;;;;10492838;28;20001;-25
2023/04/02 04:42:03;;;;;;;;;;;17.20;99.90;;;;;;10486336;28;19978;-25
2023/04/02 04:47:08;;;;;;;;;;;17.40;99.90;;;;;;10490162;28;19974;-25
2023/04/02 04:52:15;;;;;;;;;;;17.30;99.90;;;;;;10490249;28;20006;-25
2023/04/02 04:57:21;;;;;;;;;;;17.50;99.60;;;;;;10486450;28;19964;-25
2023/04/02 05:02:27;;;;;;;;;;;17.50;99.50;;;;;;10486965;28;20027;-25
2023/04/02 05:07:30;;;;;;;;;;;17.20;99.60;;;;;;10486519;28;19960;-23
2023/04/02 05:12:34;;;;;;;;;;;17.40;99.70;;;;;;10480286;28;19986;-24
2023/04/02 05:17:40;;;;;;;;;;;17.40;99.90;;;;;;10484016;28;19934;-26
2023/04/02 05:22:44;;;;;;;;;;;17.40;99.90;;;;;;10482784;28;19930;-24
2023/04/02 05:27:47;;;;;;;;;;;17.50;99.90;;;;;;10482388;28;20477;-25
2023/04/02 05:32:55;;;;;;;;;;;17.50;99.90;;;;;;10485350;28;20063;-25
2023/04/02 05:37:56;;;;;;;;;;;17.50;99.90;;;;;;10490407;28;19924;-26
2023/04/02 05:43:00;;;;;;;;;;;17.50;99.90;;;;;;10488938;28;19925;-25
2023/04/02 05:48:04;;;;;;;;;;;17.30;99.90;;;;;;10484130;28;20926;-23
2023/04/02 05:53:08;;;;;;;;;;;17.30;99.90;;;;;;10483361;28;19921;-27
2023/04/02 05:58:14;;;;;;;;;;;17.30;99.90;;;;;;10482134;28;19982;-25
2023/04/02 06:15:31;;;;;;;9.23;1.17;;;17.40;98.50;;;;;;10542246;27;20128;-24
2023/04/02 06:20:34;;;;;;;4.88;1.38;;;17.20;98.70;;;;;;10526603;28;20791;-23
2023/04/02 06:25:39;;;;;;;5.50;1.50;;;17.30;99.90;;;;;;10517337;28;20056;-24
2023/04/02 06:30:44;;;;;;;3.53;1.27;;;17.30;99.10;;;;;;10519630;28;20062;-26
2023/04/02 06:35:46;;;;;;;4.90;1.35;;;17.30;99.90;;;;;;10515532;28;20048;-25
2023/04/02 06:40:49;;;;;;;;;;;17.50;99.50;;;;;;10514752;28;20677;-25
2023/04/02 06:45:57;;;;;;;2.05;1.58;;;17.40;99.30;;;;;;10518165;28;19933;-25
2023/04/02 06:51:05;;;;;;;2.60;1.75;;;17.30;97.20;;;;;;10533459;28;20113;-25
2023/04/02 06:56:19;;;;;;;1.48;0.95;;;17.30;99.50;;;;;;10520873;28;20048;-24
2023/04/02 07:01:25;;;;;;;2.08;1.00;;;17.40;98.90;;;;;;10518963;28;20048;-24
2023/04/02 07:06:27;;;;;;;1.63;0.95;;;17.20;96.10;;;;;;10514155;28;20045;-26
2023/04/02 07:11:30;;;;;;;1.77;1.00;;;17.40;98.90;;;;;;10525847;28;20052;-25
2023/04/02 07:16:35;;;;;;;5.22;1.10;;;17.40;98.10;;;;;;10514680;28;20082;-24
2023/04/02 07:21:37;;;;;;;3.22;0.80;;;17.40;98.30;;;;;;10514805;28;20041;-28
2023/04/02 07:26:39;;;;;;;3.47;1.30;;;17.40;98.10;;;;;;10488989;28;20099;-24
2023/04/02 07:31:42;;;;;;;2.73;1.87;;;17.50;97.70;;;;;;10489198;28;20589;-24
2023/04/02 07:36:44;;;;;;;2.67;1.80;;;17.10;97.80;;;;;;10485149;28;20040;-25
2023/04/02 07:41:53;;;;;;;6.23;1.43;;;17.20;97.90;;;;;;10495897;28;20048;-24
2023/04/02 07:46:56;;;;;;;3.72;1.92;;;17.30;97.10;;;;;;10488692;28;20052;-23
2023/04/02 07:51:58;;;;;;;3.67;1.83;;;17.30;97.20;;;;;;10489324;28;20083;-23
2023/04/02 07:57:00;;;;;;;7.07;1.95;;;17.10;98.10;;;;;;10489138;28;20151;-24
2023/04/02 08:02:04;;;;;;;7.00;1.80;;;17.10;96.50;;;;;;10489631;28;20044;-25
2023/04/02 08:07:06;;;;;;;3.67;1.42;;;17.20;97.60;;;;;;10488387;28;20490;-25
2023/04/02 08:12:08;;;;;;;3.47;1.53;;;17.50;96.80;;;;;;10487407;28;20144;-25
2023/04/02 08:17:11;;;;;;;;;;;17.20;96.30;;;;;;10492988;28;20392;-26
2023/04/02 08:22:13;;;;;;;;;;;17.10;97.20;;;;;;10487738;28;20027;-24
2023/04/02 08:27:15;;;;;;;9.40;4.57;;;17.30;96.60;;;;;;10490934;28;19932;-25
2023/04/02 08:32:18;;;;;;;6.45;2.78;;;17.50;96.20;;;;;;10492101;28;20558;-24
2023/04/02 08:37:20;;;;;;;9.20;3.83;;;17.50;96.20;;;;;;10487685;28;20182;-26
2023/04/02 08:42:29;;;;;;;4.07;2.03;;;17.60;95.70;;;;;;10492365;28;20103;-25
2023/04/02 08:47:35;;;;;;;4.50;1.73;;;17.60;95.90;;;;;;10488644;28;20045;-24
2023/04/02 08:52:39;;;;;;;4.45;1.50;;;17.80;95.50;;;;;;10486831;28;20086;-25
2023/04/02 08:57:47;;;;;;;3.95;1.67;;;18.00;95.00;;;;;;10488662;28;20067;-23
2023/04/02 09:02:55;;;;;;;8.25;1.25;;;17.90;95.10;;;;;;10487703;28;20088;-24
2023/04/02 09:07:59;;;;;;;2.00;1.02;;;17.80;95.30;;;;;;10483926;28;20048;-24
2023/04/02 09:13:06;;;;;;;6.65;2.03;;;17.80;94.40;;;;;;10486412;28;20057;-24
2023/04/02 09:18:15;;;;;;;4.90;1.60;;;17.70;92.60;;;;;;10486622;28;20048;-23
2023/04/02 09:23:20;;;;;;;7.97;1.30;;;18.00;94.00;;;;;;10497446;28;20045;-24
2023/04/02 09:28:24;;;;;;;6.10;1.13;;;17.90;93.80;;;;;;10492887;28;20067;-25
2023/04/02 09:33:44;;;;;;;9.98;2.75;;;18.00;93.80;;;;;;10488849;28;20493;-24
2023/04/02 09:38:58;;;;;;;13.10;3.15;;;18.30;92.80;;;;;;10495061;28;20052;-24
2023/04/02 09:44:19;;;;;;;14.52;3.55;;;18.30;92.20;;;;;;10489453;28;20469;-24
2023/04/02 09:49:24;;;;;;;11.95;2.85;;;18.40;91.10;;;;;;10477474;28;20044;-25
2023/04/02 09:54:26;;;;;;;17.45;4.85;;;18.20;91.50;;;;;;10470760;28;20102;-23
2023/04/02 09:59:28;;;;;;;11.25;4.68;;;18.30;91.60;;;;;;10490586;28;20045;-22
2023/04/02 10:04:36;;;;;;;13.30;4.53;;;18.30;91.70;;;;;;10494343;28;20151;-24
2023/04/02 10:09:38;;;;;;;16.10;5.68;;;18.40;91.50;;;;;;10480299;28;20051;-24
2023/04/02 10:14:42;;;;;;;12.63;6.18;;;18.30;91.70;;;;;;10485197;28;20094;-25
2023/04/02 10:19:50;;;;;;;13.32;5.25;;;18.20;92.00;;;;;;10481928;28;20461;-25
2023/04/02 10:24:52;;;;;;;24.60;10.10;;;18.30;91.80;;;;;;10481146;28;20094;-26
2023/04/02 10:30:06;;;;;;;17.30;6.78;;;18.30;91.70;;;;;;10484387;28;20056;-25
2023/04/02 10:35:16;;;;;;;17.75;6.65;;;18.30;91.90;;;;;;10484866;28;20049;-27
2023/04/02 10:40:23;;;;;;;13.10;5.57;;;18.30;91.70;;;;;;10489740;28;20148;-25
2023/04/02 10:45:39;;;;;;;17.48;7.88;;;18.60;90.50;;;;;;10483147;28;20048;-25
2023/04/02 10:50:48;;;;;;;25.95;12.13;;;18.60;90.00;;;;;;10494067;28;20044;-24
2023/04/02 10:55:55;;;;;;;13.55;6.75;;;18.40;90.40;;;;;;10485718;28;20075;-26
2023/04/02 11:01:00;;;;;;;28.73;14.32;;;18.50;91.50;;;;;;10489417;28;20078;-25
2023/04/02 11:06:11;;;;;;;20.50;8.45;;;18.40;91.80;;;;;;10495180;28;20052;-25
2023/04/02 11:11:16;;;;;;;9.88;4.85;;;18.30;92.00;;;;;;10478420;28;20053;-26
2023/04/02 11:16:18;;;;;;;12.93;5.80;;;18.40;91.50;;;;;;10498881;28;20495;-25
2023/04/02 11:21:41;;;;;;;10.10;5.53;;;18.70;91.80;;;;;;10496811;28;20049;-24
2023/04/02 11:26:46;;;;;;;15.52;7.18;;;18.90;90.60;;;;;;10490941;28;20117;-24
2023/04/02 11:31:49;;;;;;;10.02;4.97;;;18.70;91.40;;;;;;10491518;28;20148;-24
2023/04/02 11:37:11;;;;;;;11.77;3.15;;;18.80;91.10;;;;;;10488027;28;20048;-24
2023/04/02 11:42:24;;;;;;;17.93;6.83;;;18.80;86.90;;;;;;10496510;28;20456;-24
2023/04/02 11:47:28;;;;;;;8.25;3.03;;;19.10;90.10;;;;;;10491689;28;20399;-25
2023/04/02 11:52:38;;;;;;;8.55;2.78;;;19.20;88.60;;;;;;10504090;28;20043;-23
2023/04/02 11:58:21;;;;;;;12.38;4.03;;;19.10;87.40;;;;;;10498970;28;20137;-23
2023/04/02 12:03:42;;;;;;;6.40;2.80;;;19.00;88.40;;;;;;10503029;28;20045;-22
2023/04/02 12:08:54;;;;;;;10.68;4.93;;;19.10;87.10;;;;;;10496705;28;20048;-23
2023/04/02 12:13:57;;;;;;;8.63;3.58;;;19.10;86.80;;;;;;10497935;28;20174;-24
2023/04/02 12:19:00;;;;;;;5.55;2.60;;;19.30;85.10;;;;;;10496149;28;20045;-25
2023/04/02 12:24:03;;;;;;;4.90;2.10;;;19.10;86.80;;;;;;10484589;28;20393;-23
2023/04/02 12:29:15;;;;;;;3.90;1.33;;;19.30;83.40;;;;;;10491617;28;20072;-24
2023/04/02 12:34:19;;;;;;;6.53;1.48;;;19.40;82.30;;;;;;10488735;28;20056;-25
2023/04/02 12:39:23;;;;;;;6.30;1.38;;;19.50;83.30;;;;;;10493105;28;20051;-24
2023/04/02 12:44:27;;;;;;;8.75;1.20;;;19.70;82.30;;;;;;10491955;28;20080;-21
2023/04/02 12:49:35;;;;;;;5.38;1.20;;;19.60;83.30;;;;;;10486457;28;20051;-26
2023/04/02 12:54:45;;;;;;;3.22;1.20;;;19.80;81.70;;;;;;10484092;28;20383;-25
2023/04/02 12:59:47;;;;;;;4.82;1.00;;;19.80;78.40;;;;;;10485050;28;20056;-24
2023/04/02 13:04:50;;;;;;;5.03;0.98;;;19.90;75.50;;;;;;10476225;28;20394;-24
2023/04/02 13:09:54;;;;;;;5.97;1.20;;;20.00;81.20;;;;;;10479324;28;20132;-27
2023/04/02 13:14:58;;;;;;;4.75;1.17;;;19.80;81.20;;;;;;10486576;28;20055;-24
2023/04/02 13:20:27;;;;;;;3.42;0.85;;;19.90;83.80;;;;;;10485405;28;20352;-23
2023/04/02 13:25:34;;;;;;;4.63;1.10;;;20.10;81.60;;;;;;10480827;28;20173;-25
2023/04/02 13:30:36;;;;;;;7.13;1.25;;;20.30;81.60;;;;;;10472680;28;20163;-23
2023/04/02 13:35:38;;;;;;;5.50;2.40;;;20.10;82.20;;;;;;10476637;28;20507;-24
2023/04/02 13:40:41;;;;;;;5.47;1.42;;;20.60;78.00;;;;;;10481822;28;20040;-26
2023/04/02 13:45:47;;;;;;;3.80;1.42;;;20.50;78.70;;;;;;10469254;28;20044;-26
2023/04/02 13:50:49;;;;;;;9.27;1.00;;;20.80;76.80;;;;;;10477709;28;20968;-25
2023/04/02 13:55:52;;;;;;;6.65;1.30;;;20.70;74.90;;;;;;10475006;28;20086;-24
2023/04/02 14:00:54;;;;;;;6.40;1.30;;;20.70;78.80;;;;;;10481170;28;20400;-23
2023/04/02 14:06:04;;;;;;;15.32;1.45;;;20.90;77.30;;;;;;10477898;28;20083;-25
2023/04/02 14:11:19;;;;;;;6.60;0.85;;;21.00;81.00;;;;;;10480637;28;20055;-23
2023/04/02 14:16:35;;;;;;;2.80;0.95;;;20.90;83.90;;;;;;10472214;28;20052;-24
2023/04/02 14:21:46;;;;;;;4.53;1.45;;;21.10;81.00;;;;;;10490719;28;20496;-24
2023/04/02 14:27:03;;;;;;;8.73;1.33;;;21.10;81.00;;;;;;10493049;28;20095;-24
2023/04/02 14:32:09;;;;;;;2.75;1.10;;;21.20;79.90;;;;;;10485947;28;20118;-23
2023/04/02 14:37:20;;;;;;;11.60;1.10;;;21.30;78.80;;;;;;10494708;28;20041;-24
2023/04/02 14:42:31;;;;;;;7.65;0.63;;;21.40;77.30;;;;;;10501553;28;20048;-25
2023/04/02 14:47:39;;;;;;;3.28;1.10;;;21.50;75.50;;;;;;10493337;28;20056;-26
2023/04/02 14:52:46;;;;;;;2.13;0.90;;;21.50;74.90;;;;;;10493028;28;20098;-25
2023/04/02 14:57:52;;;;;;;2.35;0.90;;;21.70;73.80;;;;;;10502663;28;20551;-25
2023/04/02 15:02:58;;;;;;;5.28;0.90;;;21.80;74.00;;;;;;10494107;28;20040;-24
2023/04/02 15:08:05;;;;;;;2.58;0.77;;;21.90;72.80;;;;;;10498685;28;20135;-25
2023/04/02 15:13:16;;;;;;;5.65;1.00;;;21.90;70.30;;;;;;10491420;28;20055;-25
2023/04/02 15:18:18;;;;;;;4.32;0.93;;;22.10;70.10;;;;;;10483821;28;20044;-24
2023/04/02 15:23:27;;;;;;;;;;;22.20;67.90;;;;;;10490178;28;20653;-23
2023/04/02 15:28:38;;;;;;;3.20;0.80;;;22.30;66.20;;;;;;10492375;28;20317;-25
2023/04/02 15:33:45;;;;;;;3.53;0.77;;;22.50;67.10;;;;;;10490544;28;20083;-25
2023/04/02 15:38:52;;;;;;;1.70;0.90;;;22.50;63.70;;;;;;10502820;28;20058;-25
2023/04/02 15:44:05;;;;;;;1.88;0.70;;;22.60;64.20;;;;;;10490368;28;20110;-25
2023/04/02 15:49:21;;;;;;;3.13;1.08;;;22.90;63.50;;;;;;10493550;28;20127;-25
2023/04/02 15:54:36;;;;;;;4.45;1.10;;;22.90;61.00;;;;;;10494364;28;20092;-24
2023/04/02 15:59:57;;;;;;;3.33;0.60;;;23.00;59.50;;;;;;10486633;28;20484;-24
2023/04/02 16:05:05;;;;;;;3.75;0.93;;;23.20;58.80;;;;;;10486289;28;20051;-25
2023/04/02 16:10:16;;;;;;;2.55;0.75;;;23.30;58.90;;;;;;10490540;28;20048;-25
2023/04/02 16:15:24;;;;;;;2.60;0.60;;;23.40;99.90;;;;;;10480780;28;20064;-25
2023/04/02 16:20:31;;;;;;;2.45;0.90;;;23.60;57.10;;;;;;10488743;28;20079;-27
2023/04/02 16:25:40;;;;;;;1.30;0.77;;;23.70;56.50;;;;;;10496335;28;20040;-27
2023/04/02 16:30:54;;;;;;;2.53;0.77;;;23.80;55.60;;;;;;10486733;28;20471;-25
2023/04/02 16:36:06;;;;;;;5.03;0.80;;;24.00;60.30;;;;;;10489800;28;20091;-25
2023/04/02 16:41:16;;;;;;;4.33;1.23;;;23.90;53.70;;;;;;10495877;28;20068;-22
2023/04/02 16:46:26;;;;;;;2.75;1.02;;;24.20;55.50;;;;;;10488118;28;20450;-25
2023/04/02 16:51:38;;;;;;;3.58;1.30;;;24.30;54.80;;;;;;10489007;28;20036;-25
2023/04/02 16:56:53;;;;;;;1.67;0.95;;;24.30;59.50;;;;;;10493615;28;20453;-25
2023/04/02 17:02:02;;;;;;;3.15;0.90;;;24.60;55.80;;;;;;10492140;28;20123;-25
2023/04/02 17:07:15;;;;;;;1.92;0.70;;;24.70;55.50;;;;;;10489462;28;20106;-24
2023/04/02 17:12:21;;;;;;;1.20;0.60;;;24.70;52.70;;;;;;10486826;28;20048;-25
2023/04/02 17:17:24;;;;;;;4.35;0.80;;;24.80;56.10;;;;;;10488081;28;20074;-25
2023/04/02 17:22:27;;;;;;;5.78;0.70;;;25.10;56.20;;;;;;10488694;28;20051;-24
2023/04/02 17:27:35;;;;;;;2.15;0.63;;;25.10;57.30;;;;;;10489545;28;20094;-25
2023/04/02 17:32:38;;;;;;;1.85;0.80;;;25.50;80.20;;;;;;10493384;28;20583;-25
2023/04/02 17:37:47;;;;;;;3.22;1.00;;;25.00;57.60;;;;;;10485967;28;20056;-26
2023/04/02 17:42:58;;;;;;;1.92;0.57;;;25.00;54.60;;;;;;10509763;28;20088;-25
2023/04/02 17:48:05;;;;;;;5.18;0.88;;;25.30;86.50;;;;;;10491061;28;20044;-23
2023/04/02 17:53:25;;;;;;;2.47;0.70;;;25.40;58.90;;;;;;10490464;28;20131;-24
2023/04/02 17:58:55;;;;;;;3.33;0.80;;;25.00;64.10;;;;;;10483928;28;20048;-23
2023/04/02 18:04:15;;;;;;;1.58;0.73;;;24.90;62.70;;;;;;10486832;28;20205;-26
2023/04/02 18:09:36;;;;;;;1.60;0.68;;;25.00;54.00;;;;;;10484694;28;20640;-25
2023/04/02 18:14:55;;;;;;;3.35;0.95;;;24.50;53.90;;;;;;10490081;28;20058;-26
2023/04/02 18:20:05;;;;;;;2.38;0.90;;;24.80;53.70;;;;;;10498269;28;20529;-25
2023/04/02 18:25:27;;;;;;;1.50;0.88;;;24.50;56.70;;;;;;10498240;28;20048;-25
2023/04/02 18:30:35;;;;;;;3.45;1.20;;;24.40;55.30;;;;;;10468728;28;20061;-26
2023/04/02 18:35:43;;;;;;;1.70;1.08;;;24.20;54.30;;;;;;10485493;28;20137;-24
2023/04/02 18:41:01;;;;;;;2.78;1.30;;;24.10;54.00;;;;;;10491042;28;20076;-24
2023/04/02 18:46:09;;;;;;;1.83;0.77;;;24.00;54.00;;;;;;10485108;28;20469;-25
2023/04/02 18:51:18;;;;;;;2.47;1.15;;;23.90;53.90;;;;;;10487217;28;20074;-27
2023/04/02 18:56:22;;;;;;;1.77;0.98;;;23.90;57.40;;;;;;10488451;28;20092;-27
2023/04/02 19:01:30;;;;;;;2.35;1.10;;;23.80;55.40;;;;;;10485054;28;20447;-25
2023/04/02 19:06:37;;;;;;;2.13;1.15;;;23.70;56.20;;;;;;10486485;28;20048;-27
2023/04/02 19:11:39;;;;;;;2.22;1.40;;;23.60;56.90;;;;;;10484646;28;20140;-23
2023/04/02 19:17:01;;;;;;;2.03;1.30;;;23.50;57.50;;;;;;10488404;28;20052;-26
2023/04/02 19:22:28;;;;;;;7.40;1.35;;;23.40;57.80;;;;;;10489497;28;20430;-26
2023/04/02 19:27:43;;;;;;;3.42;1.90;;;23.30;58.10;;;;;;10494320;28;20098;-26
2023/04/02 19:32:53;;;;;;;4.18;2.45;;;23.10;58.60;;;;;;10492493;28;20052;-24
2023/04/02 19:38:14;;;;;;;6.85;2.80;;;23.00;59.00;;;;;;10492064;28;20052;-24
2023/04/02 19:43:17;;;;;;;6.50;3.40;;;22.90;59.30;;;;;;10490829;28;20135;-25
2023/04/02 19:48:21;;;;;;;5.53;3.50;;;22.80;60.00;;;;;;10487752;28;21062;-23
2023/04/02 19:53:25;;;;;;;7.22;3.47;;;22.60;60.20;;;;;;10492036;28;20467;-25
2023/04/02 19:58:29;;;;;;;6.15;3.45;;;22.60;60.60;;;;;;10489554;28;20037;-26
2023/04/02 20:03:31;;;;;;;6.82;3.58;;;22.50;61.10;;;;;;10494881;28;20047;-25
2023/04/02 20:08:35;;;;;;;8.35;3.35;;;22.40;61.40;;;;;;10494955;28;20048;-24
2023/04/02 20:13:37;;;;;;;5.88;3.35;;;22.30;61.40;;;;;;10490128;28;20412;-24
2023/04/02 20:18:38;;;;;;;8.60;3.17;;;22.20;62.30;;;;;;10495794;28;20614;-25
2023/04/02 20:23:42;;;;;;;6.28;2.83;;;22.10;62.50;;;;;;10491399;28;20052;-26
2023/04/02 20:28:43;;;;;;;7.60;3.05;;;22.00;62.80;;;;;;10493968;28;20150;-23
2023/04/02 20:33:46;;;;;;;5.47;2.78;;;21.90;63.20;;;;;;10491946;28;20358;-26
2023/04/02 20:38:50;;;;;;;6.22;2.53;;;21.80;63.40;;;;;;10491670;28;20131;-25
2023/04/02 20:43:52;;;;;;;7.25;2.47;;;21.70;64.00;;;;;;10491751;28;20644;-25
2023/04/02 20:48:54;;;;;;;4.22;2.35;;;21.60;64.80;;;;;;10488788;28;20052;-25
2023/04/02 20:53:58;;;;;;;6.47;2.20;;;21.50;64.80;;;;;;10490649;28;20110;-25
2023/04/02 20:59:00;;;;;;;4.75;2.40;;;21.40;65.40;;;;;;10494796;28;20048;-26
2023/04/02 21:04:03;;;;;;;5.60;2.35;;;21.30;65.30;;;;;;10495728;28;20075;-28
2023/04/02 21:09:08;;;;;;;3.22;1.80;;;21.30;66.00;;;;;;10493762;28;20052;-26
2023/04/02 21:14:10;;;;;;;5.10;2.60;;;21.10;66.00;;;;;;10489172;28;20114;-25
2023/04/02 21:19:12;;;;;;;3.30;2.05;;;21.10;66.60;;;;;;10492839;28;20044;-25
2023/04/02 21:24:15;;;;;;;4.65;2.67;;;21.00;66.70;;;;;;10495958;28;20075;-26
2023/04/02 21:29:18;;;;;;;3.30;2.13;;;21.00;67.10;;;;;;10498661;28;20476;-25
2023/04/02 21:34:20;;;;;;;4.28;2.22;;;20.80;67.80;;;;;;10488119;28;20091;-25
2023/04/02 21:39:24;;;;;;;4.32;2.63;;;20.80;67.90;;;;;;10487842;28;20068;-25
2023/04/02 21:44:26;;;;;;;3.47;1.70;;;20.70;68.00;;;;;;10475069;28;20455;-22
2023/04/02 21:49:28;;;;;;;2.78;1.73;;;20.60;68.60;;;;;;10484177;28;20044;-25
2023/04/02 21:54:31;;;;;;;5.05;2.58;;;20.50;69.10;;;;;;10491221;28;20207;-24
2023/04/02 21:59:34;;;;;;;4.55;2.65;;;20.50;69.50;;;;;;10487300;28;20047;-24
2023/04/02 22:04:36;;;;;;;6.03;3.35;;;20.50;69.50;;;;;;10492367;28;20046;-24
2023/04/02 22:09:39;;;;;;;3.88;2.55;;;20.40;69.90;;;;;;10497231;28;20131;-25
2023/04/02 22:14:41;;;;;;;5.55;3.58;;;20.40;70.20;;;;;;10499251;28;20048;-24
2023/04/02 22:19:43;;;;;;;6.07;3.35;;;20.20;71.20;;;;;;10501772;28;20574;-24
2023/04/02 22:24:46;;;;;;;6.03;3.38;;;20.20;70.50;;;;;;10495409;28;20086;-24
2023/04/02 22:29:48;;;;;;;4.75;2.92;;;20.10;71.00;;;;;;10486132;28;20044;-25
2023/04/02 22:34:50;;;;;;;3.88;2.30;;;20.10;71.10;;;;;;10484411;28;20540;-23
2023/04/02 22:39:54;;;;;;;5.15;2.55;;;20.10;71.20;;;;;;10485202;28;20131;-24
2023/04/02 22:44:55;;;;;;;6.57;3.05;;;20.10;71.30;;;;;;10481573;28;20045;-25
2023/04/02 22:49:57;;;;;;;4.47;2.55;;;20.10;71.60;;;;;;10489176;28;20068;-22
2023/04/02 22:55:01;;;;;;;6.40;2.72;;;19.90;72.10;;;;;;10494711;28;20082;-24
2023/04/02 23:00:04;;;;;;;4.95;2.78;;;19.90;72.20;;;;;;10501910;28;20118;-23
2023/04/02 23:05:09;;;;;;;3.92;2.35;;;19.90;72.20;;;;;;10501282;28;20484;-24
2023/04/02 23:10:12;;;;;;;6.72;3.70;;;19.80;72.00;;;;;;10500940;28;20036;-24
2023/04/02 23:15:14;;;;;;;6.10;3.22;;;19.80;72.50;;;;;;10502539;28;20049;-25
2023/04/02 23:20:16;;;;;;;4.88;2.75;;;19.80;72.50;;;;;;10501266;28;20072;-24
2023/04/02 23:25:20;;;;;;;5.75;2.90;;;19.70;72.50;;;;;;10504462;28;20468;-24
2023/04/02 23:30:21;;;;;;;6.55;3.63;;;19.70;72.80;;;;;;10496740;28;20095;-24
2023/04/02 23:35:24;;;;;;;7.20;3.42;;;19.70;72.70;;;;;;10502476;28;20048;-24
2023/04/02 23:40:27;;;;;;;;;;;19.60;73.30;;;;;;10501920;28;20047;-25
2023/04/02 23:45:29;;;;;;;4.50;2.50;;;19.60;72.70;;;;;;10490883;28;19924;-24
2023/04/02 23:50:30;;;;;;;8.05;2.90;;;19.60;72.60;;;;;;10492982;28;20053;-24
2023/04/02 23:55:34;;;;;;;5.53;2.85;;;19.60;72.70;;;;;;10491519;28;20052;-24
